createdAt,value
2018-08-23T00:00:43.610Z,21.96
2018-08-23T00:03:16.451Z,22.16
2018-08-23T00:05:49.439Z,22.35
2018-08-23T00:08:16.407Z,22.31
2018-08-23T00:10:43.367Z,22.33
2018-08-23T00:13:10.223Z,22.38
2018-08-23T00:15:37.181Z,22.50
2018-08-23T00:18:04.156Z,22.53
2018-08-23T00:20:31.107Z,22.66
2018-08-23T00:22:58.082Z,22.68
2018-08-23T00:25:25.049Z,22.69
2018-08-23T00:27:51.963Z,22.28
2018-08-23T00:30:19.770Z,21.63
2018-08-23T00:32:46.666Z,21.61
2018-08-23T00:35:20.724Z,21.51
2018-08-23T00:37:47.838Z,21.48
2018-08-23T00:40:15.346Z,20.97
2018-08-23T00:42:43.794Z,21.04
2018-08-23T00:45:14.526Z,21.36
2018-08-23T00:47:41.529Z,21.39
2018-08-23T00:50:09.466Z,21.36
2018-08-23T00:52:41.714Z,21.55
2018-08-23T00:55:16.138Z,21.75
2018-08-23T00:57:43.920Z,21.58
2018-08-23T01:00:15.402Z,21.22
2018-08-23T01:02:46.433Z,20.89
2018-08-23T01:05:15.075Z,21.06
2018-08-23T01:07:42.586Z,21.22
2018-08-23T01:10:11.547Z,21.20
2018-08-23T01:12:50.267Z,21.35
2018-08-23T01:15:17.198Z,21.32
2018-08-23T01:17:44.630Z,21.19
2018-08-23T01:20:11.527Z,21.46
2018-08-23T01:22:59.218Z,21.59
2018-08-23T01:25:30.490Z,21.54
2018-08-23T01:27:57.350Z,21.43
2018-08-23T01:30:24.210Z,21.31
2018-08-23T01:32:51.098Z,21.08
2018-08-23T01:35:18.055Z,21.06
2018-08-23T01:37:45.018Z,21.22
2018-08-23T01:40:12.039Z,21.46
2018-08-23T01:42:40.050Z,21.49
2018-08-23T01:45:08.330Z,21.54
2018-08-23T01:47:59.331Z,21.37
2018-08-23T01:50:26.842Z,20.95
2018-08-23T01:52:56.043Z,20.84
2018-08-23T01:55:24.738Z,20.80
2018-08-23T01:57:51.898Z,20.89
2018-08-23T02:00:22.150Z,20.86
2018-08-23T02:02:49.165Z,20.53
2018-08-23T02:05:16.024Z,20.29
2018-08-23T02:07:42.910Z,20.18
2018-08-23T02:10:09.870Z,20.47
2018-08-23T02:12:36.722Z,20.31
2018-08-23T02:15:06.389Z,20.27
2018-08-23T02:17:35.502Z,20.28
2018-08-23T02:20:02.418Z,20.33
2018-08-23T02:22:30.298Z,20.21
2018-08-23T02:25:00.861Z,20.15
2018-08-23T02:27:27.698Z,20.19
2018-08-23T02:29:54.645Z,19.98
2018-08-23T02:32:21.594Z,20.60
2018-08-23T02:34:48.649Z,19.87
2018-08-23T02:37:16.454Z,19.70
2018-08-23T02:39:44.211Z,19.79
2018-08-23T02:42:14.446Z,19.82
2018-08-23T02:44:42.159Z,19.68
2018-08-23T02:47:09.711Z,20.09
2018-08-23T02:49:36.649Z,20.27
2018-08-23T02:52:04.030Z,20.50
2018-08-23T02:54:31.994Z,20.52
2018-08-23T02:56:59.678Z,20.31
2018-08-23T02:59:27.350Z,20.45
2018-08-23T03:01:54.318Z,20.57
2018-08-23T03:04:25.052Z,20.42
2018-08-23T03:06:53.450Z,20.32
2018-08-23T03:09:24.458Z,20.34
2018-08-23T03:11:52.597Z,20.31
2018-08-23T03:14:20.630Z,20.51
2018-08-23T03:16:52.765Z,20.47
2018-08-23T03:19:19.750Z,20.46
2018-08-23T03:21:57.355Z,20.37
2018-08-23T03:24:24.259Z,20.05
2018-08-23T03:26:51.242Z,19.88
2018-08-23T03:29:18.174Z,19.95
2018-08-23T03:31:45.223Z,20.25
2018-08-23T03:34:12.101Z,20.24
2018-08-23T03:36:39.046Z,20.26
2018-08-23T03:39:08.066Z,20.51
2018-08-23T03:41:35.722Z,20.45
2018-08-23T03:44:02.693Z,20.16
2018-08-23T03:46:29.583Z,20.13
2018-08-23T03:49:02.186Z,20.10
2018-08-23T03:51:29.294Z,19.97
2018-08-23T03:53:59.250Z,19.97
2018-08-23T03:56:27.698Z,19.96
2018-08-23T03:58:57.702Z,20.08
2018-08-23T04:01:24.653Z,20.19
2018-08-23T04:03:52.583Z,20.39
2018-08-23T04:06:31.066Z,20.44
2018-08-23T04:08:58.694Z,20.51
2018-08-23T04:11:27.318Z,20.61
2018-08-23T04:13:57.392Z,20.63
2018-08-23T04:16:26.863Z,20.72
2018-08-23T04:18:54.274Z,20.56
2018-08-23T04:21:22.787Z,20.47
2018-08-23T04:23:52.745Z,20.15
2018-08-23T04:26:20.095Z,20.16
2018-08-23T04:28:47.090Z,20.23
2018-08-23T04:31:14.007Z,20.18
2018-08-23T04:36:19.099Z,19.61
2018-08-23T04:38:50.726Z,19.72
2018-08-23T04:41:19.246Z,19.74
2018-08-23T04:43:50.254Z,19.78
2018-08-23T04:46:21.342Z,19.83
2018-08-23T04:48:48.320Z,19.90
2018-08-23T04:51:18.226Z,20.19
2018-08-23T04:53:54.931Z,20.02
2018-08-23T04:56:21.870Z,20.29
2018-08-23T04:58:50.789Z,20.39
2018-08-23T05:01:17.774Z,20.49
2018-08-23T05:03:44.690Z,20.75
2018-08-23T05:06:20.789Z,20.68
2018-08-23T05:08:53.877Z,20.54
2018-08-23T05:11:20.816Z,20.57
2018-08-23T05:13:48.090Z,20.61
2018-08-23T05:16:15.040Z,20.89
2018-08-23T05:18:41.924Z,21.25
2018-08-23T05:21:15.074Z,21.31
2018-08-23T05:23:41.927Z,21.62
2018-08-23T05:26:15.027Z,21.74
2018-08-23T05:29:00.678Z,21.90
2018-08-23T05:31:28.934Z,21.94
2018-08-23T05:33:57.891Z,22.21
2018-08-23T05:36:24.905Z,22.22
2018-08-23T05:38:51.890Z,22.03
2018-08-23T05:41:19.754Z,22.21
2018-08-23T05:43:58.406Z,22.06
2018-08-23T05:46:25.446Z,22.35
2018-08-23T05:48:52.400Z,22.25
2018-08-23T05:51:20.304Z,22.28
2018-08-23T05:53:50.312Z,22.40
2018-08-23T05:56:18.238Z,22.53
2018-08-23T05:58:46.790Z,22.64
2018-08-23T06:01:16.710Z,22.54
2018-08-23T06:03:44.301Z,22.53
2018-08-23T06:06:11.238Z,22.86
2018-08-23T06:08:42.010Z,23.38
2018-08-23T06:11:10.083Z,23.25
2018-08-23T06:13:37.235Z,23.68
2018-08-23T06:16:04.235Z,23.76
2018-08-23T06:18:34.170Z,23.34
2018-08-23T06:21:01.136Z,23.31
2018-08-23T06:23:51.543Z,22.69
2018-08-23T06:26:20.237Z,22.62
2018-08-23T06:28:47.167Z,22.54
2018-08-23T06:31:14.111Z,22.92
2018-08-23T06:33:46.965Z,22.57
2018-08-23T06:36:13.750Z,22.39
2018-08-23T06:38:48.233Z,22.45
2018-08-23T06:41:15.133Z,23.09
2018-08-23T06:43:42.097Z,23.05
2018-08-23T06:46:09.936Z,23.20
2018-08-23T06:48:39.766Z,23.31
2018-08-23T06:51:09.119Z,22.75
2018-08-23T06:53:45.182Z,22.85
2018-08-23T06:56:12.210Z,22.88
2018-08-23T06:58:39.086Z,23.19
2018-08-23T07:01:12.614Z,23.17
2018-08-23T07:03:49.394Z,23.23
2018-08-23T07:06:19.938Z,23.50
2018-08-23T07:08:53.071Z,23.99
2018-08-23T07:11:20.098Z,24.08
2018-08-23T07:14:09.510Z,24.35
2018-08-23T07:16:36.462Z,24.53
2018-08-23T07:19:26.749Z,24.59
2018-08-23T07:22:03.769Z,24.61
2018-08-23T07:24:43.166Z,24.65
2018-08-23T07:27:11.394Z,24.82
2018-08-23T07:29:38.370Z,24.75
2018-08-23T07:32:06.577Z,24.59
2018-08-23T07:34:33.806Z,24.43
2018-08-23T07:37:17.350Z,24.46
2018-08-23T07:40:04.714Z,24.70
2018-08-23T07:42:32.573Z,24.72
2018-08-23T07:45:02.806Z,25.15
2018-08-23T07:47:30.254Z,25.17
2018-08-23T07:49:58.450Z,25.59
2018-08-23T07:52:26.485Z,25.63
2018-08-23T07:54:56.765Z,25.79
2018-08-23T07:57:29.430Z,26.07
2018-08-23T08:00:02.214Z,26.33
2018-08-23T08:02:29.323Z,26.72
2018-08-23T08:04:56.891Z,27.02
2018-08-23T08:07:25.898Z,26.79
2018-08-23T08:09:53.954Z,26.34
2018-08-23T08:12:36.003Z,25.87
2018-08-23T08:15:04.370Z,25.77
2018-08-23T08:17:32.394Z,25.70
2018-08-23T08:20:00.387Z,26.26
2018-08-23T08:22:27.284Z,26.76
2018-08-23T08:25:10.287Z,26.59
2018-08-23T08:27:41.931Z,26.97
2018-08-23T08:30:12.170Z,27.12
2018-08-23T08:32:39.139Z,27.60
2018-08-23T08:35:13.426Z,27.56
2018-08-23T08:37:40.290Z,27.43
2018-08-23T08:40:12.278Z,27.43
2018-08-23T08:42:39.976Z,27.80
2018-08-23T08:45:14.459Z,28.43
2018-08-23T08:47:42.858Z,28.69
2018-08-23T08:50:09.852Z,28.67
2018-08-23T08:52:36.899Z,29.08
2018-08-23T08:55:05.578Z,29.46
2018-08-23T08:57:32.715Z,29.41
2018-08-23T09:00:00.098Z,29.48
2018-08-23T09:02:29.479Z,29.81
2018-08-23T09:04:56.359Z,29.89
2018-08-23T09:07:28.248Z,30.30
2018-08-23T09:09:55.996Z,30.06
2018-08-23T09:12:22.878Z,30.58
2018-08-23T09:14:53.367Z,30.20
2018-08-23T09:17:38.914Z,30.63
2018-08-23T09:20:23.931Z,31.60
2018-08-23T09:22:53.203Z,31.79
2018-08-23T09:25:24.797Z,31.24
2018-08-23T09:27:51.934Z,31.12
2018-08-23T09:30:24.980Z,31.09
2018-08-23T09:32:51.900Z,30.95
2018-08-23T09:35:24.794Z,30.44
2018-08-23T09:37:55.637Z,31.29
2018-08-23T09:40:24.114Z,31.19
2018-08-23T09:42:51.945Z,30.29
2018-08-23T09:45:18.884Z,30.89
2018-08-23T09:47:45.842Z,31.09
2018-08-23T09:50:12.864Z,31.20
2018-08-23T09:52:41.383Z,31.34
2018-08-23T09:55:09.670Z,31.13
2018-08-23T09:57:36.829Z,31.10
2018-08-23T10:00:09.164Z,30.97
2018-08-23T10:02:48.330Z,30.68
2018-08-23T10:05:27.210Z,30.60
2018-08-23T10:07:59.709Z,30.70
2018-08-23T10:10:32.458Z,30.48
2018-08-23T10:13:06.946Z,30.78
2018-08-23T10:16:00.130Z,30.91
2018-08-23T10:18:32.723Z,30.57
2018-08-23T10:21:01.084Z,30.02
2018-08-23T10:23:28.072Z,30.13
2018-08-23T10:25:58.367Z,30.21
2018-08-23T10:28:26.587Z,29.87
2018-08-23T10:30:53.714Z,29.80
2018-08-23T10:33:20.580Z,29.76
2018-08-23T10:35:52.949Z,30.22
2018-08-23T10:38:22.101Z,30.02
2018-08-23T10:40:52.294Z,30.26
2018-08-23T10:43:25.150Z,30.09
2018-08-23T10:46:01.882Z,29.95
2018-08-23T10:48:35.006Z,30.30
2018-08-23T10:51:02.089Z,30.31
2018-08-23T10:53:29.939Z,30.41
2018-08-23T10:55:56.890Z,30.65
2018-08-23T10:58:24.882Z,31.00
2018-08-23T11:00:57.886Z,30.65
2018-08-23T11:03:24.814Z,31.00
2018-08-23T11:05:52.183Z,31.30
2018-08-23T11:08:20.887Z,31.58
2018-08-23T11:10:59.795Z,31.89
2018-08-23T11:13:32.418Z,32.11
2018-08-23T11:16:05.354Z,32.38
2018-08-23T11:18:38.098Z,32.01
2018-08-23T11:21:05.100Z,31.99
2018-08-23T11:23:31.939Z,31.86
2018-08-23T11:25:58.914Z,32.32
2018-08-23T11:28:26.420Z,32.22
2018-08-23T11:30:58.599Z,31.93
2018-08-23T11:33:25.502Z,31.60
2018-08-23T11:35:52.453Z,31.79
2018-08-23T11:38:19.423Z,32.06
2018-08-23T11:40:46.354Z,32.36
2018-08-23T11:43:13.339Z,31.58
2018-08-23T11:45:40.304Z,32.00
2018-08-23T11:48:07.214Z,32.37
2018-08-23T11:50:34.217Z,31.90
2018-08-23T11:53:02.201Z,31.81
2018-08-23T11:55:31.230Z,32.25
2018-08-23T11:57:58.123Z,32.19
2018-08-23T12:00:31.226Z,31.80
2018-08-23T12:02:58.190Z,31.70
2018-08-23T12:05:27.198Z,31.72
2018-08-23T12:07:57.038Z,31.99
2018-08-23T12:10:29.010Z,32.33
2018-08-23T12:12:56.608Z,32.34
2018-08-23T12:15:25.176Z,32.93
2018-08-23T12:17:52.427Z,32.67
2018-08-23T12:20:20.414Z,32.33
2018-08-23T12:22:51.064Z,32.42
2018-08-23T12:25:18.029Z,32.34
2018-08-23T12:28:20.466Z,32.22
2018-08-23T12:30:48.158Z,32.65
2018-08-23T12:33:15.060Z,32.63
2018-08-23T12:35:42.039Z,32.46
2018-08-23T12:38:17.244Z,32.58
2018-08-23T12:40:50.042Z,32.74
2018-08-23T12:43:24.685Z,32.64
2018-08-23T12:45:59.706Z,32.38
2018-08-23T12:48:28.780Z,31.97
2018-08-23T12:50:56.794Z,31.87
2018-08-23T12:53:23.843Z,31.75
2018-08-23T12:55:50.747Z,32.46
2018-08-23T12:58:17.722Z,33.05
2018-08-23T13:00:44.698Z,32.94
2018-08-23T13:03:11.675Z,32.49
2018-08-23T13:05:38.875Z,32.38
2018-08-23T13:08:06.239Z,32.65
2018-08-23T13:10:37.848Z,33.03
2018-08-23T13:13:05.574Z,33.62
2018-08-23T13:15:32.558Z,33.83
2018-08-23T13:17:59.620Z,34.04
2018-08-23T13:20:26.466Z,34.17
2018-08-23T13:22:53.446Z,33.69
2018-08-23T13:25:20.338Z,32.92
2018-08-23T13:27:47.293Z,33.05
2018-08-23T13:30:17.294Z,32.79
2018-08-23T13:32:45.182Z,32.62
2018-08-23T13:35:13.151Z,33.09
2018-08-23T13:37:40.122Z,33.78
2018-08-23T13:40:14.794Z,34.00
2018-08-23T13:42:41.834Z,34.21
2018-08-23T13:45:09.818Z,34.34
2018-08-23T13:47:37.759Z,33.91
2018-08-23T13:50:05.626Z,33.60
2018-08-23T13:54:59.602Z,34.10
2018-08-23T13:57:26.522Z,34.03
2018-08-23T13:59:53.499Z,34.54
2018-08-23T14:02:20.428Z,34.30
2018-08-23T14:04:47.431Z,33.83
2018-08-23T14:07:15.486Z,34.12
2018-08-23T14:09:43.256Z,34.63
2018-08-23T14:12:10.200Z,34.60
2018-08-23T14:14:37.150Z,34.27
2018-08-23T14:17:05.158Z,34.11
2018-08-23T14:19:32.427Z,34.85
2018-08-23T14:21:59.362Z,34.79
2018-08-23T14:24:26.338Z,33.48
2018-08-23T14:26:53.297Z,33.54
2018-08-23T14:29:20.260Z,33.42
2018-08-23T14:31:47.210Z,33.45
2018-08-23T14:34:14.171Z,33.38
2018-08-23T14:36:41.164Z,33.57
2018-08-23T14:39:09.324Z,33.51
2018-08-23T14:41:36.703Z,33.53
2018-08-23T14:44:03.686Z,33.40
2018-08-23T14:46:36.492Z,33.61
2018-08-23T14:49:03.520Z,33.68
2018-08-23T14:51:31.111Z,34.31
2018-08-23T14:53:58.128Z,34.24
2018-08-23T14:56:34.453Z,33.87
2018-08-23T14:59:01.540Z,34.03
2018-08-23T15:01:28.462Z,33.76
2018-08-23T15:03:55.508Z,34.06
2018-08-23T15:06:22.436Z,33.67
2018-08-23T15:08:49.406Z,33.68
2018-08-23T15:11:18.238Z,33.64
2018-08-23T15:13:45.179Z,33.80
2018-08-23T15:16:12.135Z,33.85
2018-08-23T15:18:39.467Z,33.59
2018-08-23T15:21:06.398Z,33.50
2018-08-23T15:23:33.326Z,33.58
2018-08-23T15:26:01.319Z,33.55
2018-08-23T15:28:29.255Z,33.68
2018-08-23T15:30:57.222Z,33.80
2018-08-23T15:33:24.297Z,33.43
2018-08-23T15:35:51.295Z,33.19
2018-08-23T15:38:18.359Z,33.20
2018-08-23T15:40:46.381Z,33.36
2018-08-23T15:43:13.371Z,32.99
2018-08-23T15:45:40.317Z,33.04
2018-08-23T15:48:07.272Z,33.29
2018-08-23T15:50:34.225Z,32.72
2018-08-23T15:53:01.191Z,32.57
2018-08-23T15:55:28.548Z,32.59
2018-08-23T15:57:55.329Z,32.55
2018-08-23T16:00:22.226Z,32.65
2018-08-23T16:02:49.558Z,32.97
2018-08-23T16:05:16.800Z,33.10
2018-08-23T16:07:43.678Z,32.90
2018-08-23T16:10:10.897Z,32.85
2018-08-23T16:12:37.886Z,32.83
2018-08-23T16:15:10.566Z,32.89
2018-08-23T16:17:43.175Z,32.97
2018-08-23T16:20:15.991Z,32.55
2018-08-23T16:22:43.326Z,32.24
2018-08-23T16:25:10.333Z,32.23
2018-08-23T16:27:38.253Z,32.43
2018-08-23T16:30:05.383Z,32.46
2018-08-23T16:32:32.352Z,32.23
2018-08-23T16:34:59.303Z,32.19
2018-08-23T16:37:26.322Z,32.12
2018-08-23T16:39:53.170Z,32.16
2018-08-23T16:42:20.080Z,32.23
2018-08-23T16:44:47.086Z,32.28
2018-08-23T16:47:13.978Z,31.88
2018-08-23T16:49:40.894Z,31.70
2018-08-23T16:52:07.980Z,31.73
2018-08-23T16:54:35.137Z,31.69
2018-08-23T16:57:02.149Z,31.87
2018-08-23T16:59:29.144Z,31.36
2018-08-23T17:01:56.250Z,31.14
2018-08-23T17:04:41.610Z,30.94
2018-08-23T17:07:08.698Z,30.19
2018-08-23T17:09:35.634Z,29.76
2018-08-23T17:12:15.308Z,28.98
2018-08-23T17:14:42.246Z,27.72
2018-08-23T17:17:15.059Z,27.03
2018-08-23T17:19:42.022Z,25.82
2018-08-23T17:22:08.939Z,25.18
2018-08-23T17:24:36.203Z,25.28
2018-08-23T17:27:04.102Z,24.93
2018-08-23T17:29:31.158Z,24.59
2018-08-23T17:31:58.106Z,24.86
2018-08-23T17:34:25.130Z,24.94
2018-08-23T17:36:52.098Z,24.74
2018-08-23T17:39:19.041Z,24.72
2018-08-23T17:41:45.963Z,24.98
2018-08-23T17:44:12.922Z,24.97
2018-08-23T17:46:39.908Z,25.32
2018-08-23T17:49:06.818Z,25.21
2018-08-23T17:51:34.329Z,25.31
2018-08-23T17:54:01.222Z,25.42
2018-08-23T17:56:28.209Z,25.25
2018-08-23T17:58:55.167Z,25.37
2018-08-23T18:01:22.155Z,25.20
2018-08-23T18:03:49.066Z,25.04
2018-08-23T18:06:16.047Z,24.91
2018-08-23T18:08:42.998Z,25.03
2018-08-23T18:11:09.964Z,25.12
2018-08-23T18:13:36.902Z,25.28
2018-08-23T18:16:09.701Z,25.24
2018-08-23T18:18:36.546Z,25.17
2018-08-23T18:21:03.634Z,25.10
2018-08-23T18:23:30.597Z,25.15
2018-08-23T18:25:58.338Z,24.99
2018-08-23T18:28:25.336Z,25.02
2018-08-23T18:30:52.295Z,25.09
2018-08-23T18:33:19.233Z,25.02
2018-08-23T18:35:46.187Z,24.73
2018-08-23T18:38:13.158Z,24.91
2018-08-23T18:40:40.098Z,24.74
2018-08-23T18:43:07.045Z,24.64
2018-08-23T18:45:34.002Z,24.67
2018-08-23T18:48:00.967Z,25.07
2018-08-23T18:50:27.938Z,24.87
2018-08-23T18:52:54.878Z,24.01
2018-08-23T18:55:21.746Z,24.51
2018-08-23T18:57:48.658Z,24.82
2018-08-23T19:00:15.615Z,24.90
2018-08-23T19:02:42.502Z,25.02
2018-08-23T19:05:09.474Z,25.01
2018-08-23T19:07:41.865Z,24.77
2018-08-23T19:10:09.732Z,24.68
2018-08-23T19:12:36.598Z,24.32
2018-08-23T19:15:03.842Z,24.16
2018-08-23T19:17:35.202Z,24.26
2018-08-23T19:20:02.174Z,24.26
2018-08-23T19:22:29.173Z,24.31
2018-08-23T19:24:56.345Z,24.19
2018-08-23T19:27:23.255Z,24.32
2018-08-23T19:29:50.233Z,24.21
2018-08-23T19:32:17.154Z,24.51
2018-08-23T19:34:44.106Z,24.58
2018-08-23T19:37:11.103Z,24.50
2018-08-23T19:39:38.114Z,24.40
2018-08-23T19:42:05.090Z,24.49
2018-08-23T19:44:32.062Z,24.16
2018-08-23T19:47:04.826Z,23.94
2018-08-23T19:49:37.499Z,23.57
2018-08-23T19:52:04.406Z,23.27
2018-08-23T19:54:31.371Z,23.13
2018-08-23T19:56:58.323Z,22.97
2018-08-23T19:59:25.309Z,23.12
2018-08-23T20:01:52.211Z,23.26
2018-08-23T20:04:19.169Z,22.28
2018-08-23T20:06:46.211Z,22.23
2018-08-23T20:09:13.110Z,22.61
2018-08-23T20:11:40.039Z,22.76
2018-08-23T20:14:08.037Z,22.87
2018-08-23T20:16:34.974Z,22.90
2018-08-23T20:19:05.202Z,22.92
2018-08-23T20:21:32.182Z,22.86
2018-08-23T20:23:59.182Z,22.88
2018-08-23T20:26:26.347Z,22.60
2018-08-23T20:28:53.251Z,22.37
2018-08-23T20:31:20.211Z,22.13
2018-08-23T20:33:47.163Z,22.19
2018-08-23T20:36:14.846Z,22.39
2018-08-23T20:38:41.805Z,22.40
2018-08-23T20:41:08.787Z,22.61
2018-08-23T20:43:35.729Z,22.67
2018-08-23T20:46:02.675Z,22.77
2018-08-23T20:48:29.542Z,22.68
2018-08-23T20:50:56.565Z,22.57
2018-08-23T20:53:23.458Z,22.10
2018-08-23T20:55:50.492Z,22.05
2018-08-23T20:58:18.514Z,21.87
2018-08-23T21:00:45.358Z,21.83
2018-08-23T21:03:12.318Z,21.73
2018-08-23T21:05:39.290Z,21.86
2018-08-23T21:08:06.910Z,21.98
2018-08-23T21:10:33.926Z,22.01
2018-08-23T21:13:00.898Z,22.23
2018-08-23T21:15:27.827Z,22.38
2018-08-23T21:17:54.851Z,22.31
2018-08-23T21:20:21.782Z,22.15
2018-08-23T21:22:49.414Z,22.13
2018-08-23T21:25:16.407Z,21.70
2018-08-23T21:27:43.310Z,21.69
2018-08-23T21:30:10.358Z,21.86
2018-08-23T21:32:37.254Z,21.93
2018-08-23T21:35:04.194Z,21.83
2018-08-23T21:37:31.193Z,22.06
2018-08-23T21:39:58.174Z,21.68
2018-08-23T21:42:25.085Z,21.44
2018-08-23T21:44:52.009Z,21.32
2018-08-23T21:47:18.971Z,21.23
2018-08-23T21:49:45.930Z,21.24
2018-08-23T21:52:12.910Z,21.33
2018-08-23T21:54:39.843Z,21.28
2018-08-23T21:57:07.646Z,21.33
2018-08-23T21:59:34.555Z,21.51
2018-08-23T22:02:07.246Z,21.50
2018-08-23T22:04:50.730Z,21.52
2018-08-23T22:07:17.690Z,21.29
2018-08-23T22:09:47.974Z,21.41
2018-08-23T22:12:14.870Z,21.18
2018-08-23T22:14:41.819Z,21.52
2018-08-23T22:17:08.775Z,21.57
2018-08-23T22:19:35.763Z,21.49
2018-08-23T22:22:02.743Z,21.40
2018-08-23T22:24:29.633Z,20.98
2018-08-23T22:26:56.703Z,20.82
2018-08-23T22:29:23.567Z,20.67
2018-08-23T22:31:50.449Z,20.63
2018-08-23T22:34:17.426Z,20.60
2018-08-23T22:36:44.351Z,20.36
2018-08-23T22:39:11.281Z,20.33
2018-08-23T22:41:38.282Z,20.61
2018-08-23T22:44:05.288Z,20.49
2018-08-23T22:46:32.147Z,20.63
2018-08-23T22:48:59.163Z,20.57
2018-08-23T22:51:26.133Z,20.25
2018-08-23T22:53:53.051Z,20.22
2018-08-23T22:56:19.990Z,20.09
2018-08-23T22:58:46.914Z,20.07
2018-08-23T23:01:14.412Z,20.11
2018-08-23T23:03:47.797Z,20.03
2018-08-23T23:06:15.506Z,20.22
2018-08-23T23:08:42.418Z,20.24
2018-08-23T23:11:09.331Z,20.40
2018-08-23T23:13:36.291Z,20.43
2018-08-23T23:16:03.238Z,20.44
2018-08-23T23:18:30.177Z,20.47
2018-08-23T23:20:57.938Z,20.45
2018-08-23T23:23:24.814Z,20.34
2018-08-23T23:25:52.818Z,20.39
2018-08-23T23:28:19.763Z,20.34
2018-08-23T23:30:46.714Z,20.33
2018-08-23T23:33:15.486Z,20.11
2018-08-23T23:35:42.371Z,20.32
2018-08-23T23:38:09.336Z,20.39
2018-08-23T23:40:38.050Z,20.65
2018-08-23T23:43:04.963Z,20.58
2018-08-23T23:45:31.863Z,21.02
2018-08-23T23:47:58.815Z,20.50
2018-08-23T23:50:25.758Z,20.30
2018-08-23T23:52:53.550Z,20.14
2018-08-23T23:55:20.514Z,19.97
2018-08-23T23:57:47.455Z,19.99
